Time;durP1;ratioP1;P1;durP2;ratioP2;P2;SDS_P1;SDS_P2;PMS_P1;PMS_P2;Temp;Humidity;BMP_temperature;BMP_pressure;BME280_temperature;BME280_humidity;BME280_pressure;Samples;Min_cycle;Max_cycle;Signal;HPM_P1;HPM_P2
2023/11/20 00:01:35;;;;;;;8.50;0.75;;;;;;;;;;5044675;28;20057;-76
2023/11/20 00:04:06;;;;;;;2.30;0.50;;;;;;;;;;5044845;28;20056;-75
2023/11/20 00:06:45;;;;;;;1.60;0.65;;;;;;;;;;5045189;28;20044;-79
2023/11/20 00:09:18;;;;;;;3.25;0.60;;;;;;;;;;5032608;28;20144;-75
2023/11/20 00:11:49;;;;;;;3.92;0.52;;;;;;;;;;5025277;28;20045;-76
2023/11/20 00:14:21;;;;;;;5.22;0.70;;;;;;;;;;5024717;28;20497;-75
2023/11/20 00:16:52;;;;;;;2.45;0.60;;;;;;;;;;5024682;28;20770;-78
2023/11/20 00:19:23;;;;;;;6.72;1.08;;;;;;;;;;5025005;28;20108;-74
2023/11/20 00:21:53;;;;;;;5.90;0.82;;;;;;;;;;5024185;28;20061;-76
2023/11/20 00:24:24;;;;;;;8.50;0.75;;;;;;;;;;5025711;28;20056;-74
2023/11/20 00:26:54;;;;;;;1.30;0.77;;;;;;;;;;5024200;28;20045;-76
2023/11/20 00:29:25;;;;;;;3.63;0.77;;;;;;;;;;5023938;28;20046;-74
2023/11/20 00:31:54;;;;;;;3.83;0.38;;;;;;;;;;5024676;28;20046;-76
2023/11/20 00:34:25;;;;;;;1.48;0.52;;;;;;;;;;5024569;28;20065;-79
2023/11/20 00:36:55;;;;;;;1.40;0.47;;;;;;;;;;5024277;28;20064;-75
2023/11/20 00:39:26;;;;;;;2.20;0.43;;;;;;;;;;5025105;28;20049;-75
2023/11/20 00:41:57;;;;;;;5.68;0.65;;;;;;;;;;5041954;28;20503;-74
2023/11/20 00:44:28;;;;;;;5.38;0.50;;;;;;;;;;5044203;28;20055;-75
2023/11/20 00:46:58;;;;;;;4.22;1.05;;;;;;;;;;5043640;28;20540;-76
2023/11/20 00:49:32;;;;;;;9.80;0.85;;;;;;;;;;5043505;28;20049;-79
2023/11/20 00:52:09;;;;;;;2.92;0.47;;;;;;;;;;5027253;28;20546;-75
2023/11/20 00:54:43;;;;;;;5.90;1.75;;;;;;;;;;5043334;28;20068;-75
2023/11/20 00:57:14;;;;;;;6.53;0.77;;;;;;;;;;5043885;28;20044;-74
2023/11/20 00:59:45;;;;;;;1.13;0.57;;;;;;;;;;5041755;28;20053;-77
2023/11/20 01:02:16;;;;;;;6.40;0.70;;;;;;;;;;5043174;28;20519;-74
2023/11/20 01:04:47;;;;;;;7.63;0.90;;;;;;;;;;5043950;28;20412;-75
2023/11/20 01:07:17;;;;;;;3.92;0.65;;;;;;;;;;5042555;28;20068;-75
2023/11/20 01:09:48;;;;;;;3.85;0.80;;;;;;;;;;5042520;28;20061;-77
2023/11/20 01:12:18;;;;;;;4.28;0.77;;;;;;;;;;5044270;28;20427;-75
2023/11/20 01:14:49;;;;;;;3.50;0.50;;;;;;;;;;5043265;28;20052;-76
2023/11/20 01:17:20;;;;;;;3.20;0.57;;;;;;;;;;5042925;28;20407;-76
2023/11/20 01:19:50;;;;;;;1.92;0.38;;;;;;;;;;5043892;28;20111;-74
2023/11/20 01:22:20;;;;;;;3.10;0.60;;;;;;;;;;5043768;28;20412;-76
2023/11/20 01:24:50;;;;;;;4.00;0.60;;;;;;;;;;5042881;28;20053;-75
2023/11/20 01:27:38;;;;;;;5.60;0.70;;;;;;;;;;5043696;28;20076;-75
2023/11/20 01:30:09;;;;;;;8.68;0.68;;;;;;;;;;5042154;28;20048;-74
2023/11/20 01:32:39;;;;;;;2.63;0.47;;;;;;;;;;5043415;28;20052;-75
2023/11/20 01:35:10;;;;;;;0.40;0.40;;;;;;;;;;5042926;28;20052;-76
2023/11/20 01:37:41;;;;;;;4.53;0.90;;;;;;;;;;5043104;28;20420;-75
2023/11/20 01:40:15;;;;;;;3.50;0.57;;;;;;;;;;5025817;28;20521;-75
2023/11/20 01:42:47;;;;;;;5.53;0.60;;;;;;;;;;5042299;28;20079;-75
2023/11/20 01:45:17;;;;;;;2.15;0.50;;;;;;;;;;5041467;28;20084;-75
2023/11/20 01:47:48;;;;;;;7.28;0.68;;;;;;;;;;5043650;28;20048;-75
2023/11/20 01:50:20;;;;;;;7.28;1.00;;;;;;;;;;5041949;28;20443;-76
2023/11/20 01:52:51;;;;;;;6.50;0.80;;;;;;;;;;5042298;28;20049;-75
2023/11/20 01:55:31;;;;;;;3.17;0.40;;;;;;;;;;5043432;28;20041;-74
2023/11/20 01:58:03;;;;;;;7.57;0.80;;;;;;;;;;5043237;28;20420;-75
2023/11/20 02:00:38;;;;;;;3.60;0.75;;;;;;;;;;5041184;28;20057;-76
2023/11/20 02:03:13;;;;;;;6.72;0.52;;;;;;;;;;5042577;28;20587;-74
2023/11/20 02:05:43;;;;;;;5.88;0.60;;;;;;;;;;5042988;28;20045;-76
2023/11/20 02:08:15;;;;;;;2.38;0.75;;;;;;;;;;5041140;28;20063;-75
2023/11/20 02:10:45;;;;;;;4.22;0.75;;;;;;;;;;5042654;28;20063;-76
2023/11/20 02:13:16;;;;;;;2.58;0.70;;;;;;;;;;5041590;28;20511;-74
2023/11/20 02:15:46;;;;;;;4.55;0.52;;;;;;;;;;5041135;28;20808;-75
2023/11/20 02:18:34;;;;;;;3.17;0.60;;;;;;;;;;5040894;28;20053;-75
2023/11/20 02:21:05;;;;;;;7.60;0.70;;;;;;;;;;5041549;28;20064;-75
2023/11/20 02:23:36;;;;;;;2.60;0.63;;;;;;;;;;5043099;28;20056;-74
2023/11/20 02:26:20;;;;;;;7.53;0.75;;;;;;;;;;5043437;28;20067;-74
2023/11/20 02:29:27;;;;;;;5.32;1.15;;;;;;;;;;5042773;28;20416;-74
2023/11/20 02:32:00;;;;;;;11.90;1.00;;;;;;;;;;5041568;28;20053;-74
2023/11/20 02:34:31;;;;;;;2.90;0.60;;;;;;;;;;5042190;28;20527;-74
2023/11/20 02:37:01;;;;;;;4.55;0.80;;;;;;;;;;5042897;28;20068;-75
2023/11/20 02:40:10;;;;;;;4.82;0.75;;;;;;;;;;5041006;28;20424;-76
2023/11/20 02:42:41;;;;;;;1.73;0.60;;;;;;;;;;5038328;28;20056;-75
2023/11/20 02:45:13;;;;;;;4.40;0.60;;;;;;;;;;5043139;28;20045;-75
2023/11/20 02:47:44;;;;;;;2.88;0.73;;;;;;;;;;5041330;28;20167;-75
2023/11/20 02:50:14;;;;;;;1.75;0.47;;;;;;;;;;5041931;28;20045;-75
2023/11/20 02:52:45;;;;;;;3.20;0.65;;;;;;;;;;5041866;28;20056;-74
2023/11/20 02:55:16;;;;;;;7.53;0.80;;;;;;;;;;5042584;28;20052;-74
2023/11/20 02:57:47;;;;;;;3.30;0.82;;;;;;;;;;5042070;28;20053;-75
2023/11/20 03:00:19;;;;;;;6.68;0.88;;;;;;;;;;5041131;28;20057;-75
2023/11/20 03:02:51;;;;;;;1.85;0.65;;;;;;;;;;5042222;28;20040;-75
2023/11/20 03:05:22;;;;;;;9.43;0.80;;;;;;;;;;5040766;28;20057;-73
2023/11/20 03:07:52;;;;;;;4.53;0.60;;;;;;;;;;5041867;28;20049;-74
2023/11/20 03:10:25;;;;;;;4.72;1.02;;;;;;;;;;5041727;28;20045;-73
2023/11/20 03:12:56;;;;;;;8.50;1.25;;;;;;;;;;5042605;28;20049;-76
2023/11/20 03:15:27;;;;;;;4.43;0.80;;;;;;;;;;5042614;28;20049;-76
2023/11/20 03:18:00;;;;;;;4.53;0.88;;;;;;;;;;5042236;28;20053;-76
2023/11/20 03:20:32;;;;;;;4.25;0.88;;;;;;;;;;5040956;28;20052;-75
2023/11/20 03:23:03;;;;;;;2.33;0.73;;;;;;;;;;5041376;28;20048;-76
2023/11/20 03:25:33;;;;;;;7.00;0.60;;;;;;;;;;5041983;28;20085;-76
2023/11/20 03:28:03;;;;;;;6.00;0.70;;;;;;;;;;5040834;28;20056;-76
2023/11/20 03:30:34;;;;;;;6.32;0.75;;;;;;;;;;5042047;28;20056;-74
2023/11/20 03:33:06;;;;;;;4.25;0.60;;;;;;;;;;5041681;28;20056;-74
2023/11/20 03:35:37;;;;;;;4.57;0.70;;;;;;;;;;5041249;28;20408;-75
2023/11/20 03:38:06;;;;;;;8.93;0.88;;;;;;;;;;5040631;28;20053;-75
2023/11/20 03:40:37;;;;;;;4.60;0.50;;;;;;;;;;5042060;28;20056;-75
2023/11/20 03:43:07;;;;;;;2.20;1.00;;;;;;;;;;5040229;28;21173;-75
2023/11/20 03:45:38;;;;;;;6.05;1.20;;;;;;;;;;5041947;28;20393;-75
2023/11/20 03:48:08;;;;;;;3.85;0.60;;;;;;;;;;5041701;28;20048;-76
2023/11/20 03:50:38;;;;;;;7.25;1.00;;;;;;;;;;5041926;28;20033;-74
2023/11/20 03:53:10;;;;;;;5.05;0.70;;;;;;;;;;5041483;28;20049;-75
2023/11/20 03:55:41;;;;;;;1.48;0.60;;;;;;;;;;5041611;28;20056;-76
2023/11/20 03:58:13;;;;;;;1.58;0.52;;;;;;;;;;5041802;28;20060;-75
2023/11/20 04:00:43;;;;;;;8.25;0.77;;;;;;;;;;5042797;28;20492;-74
2023/11/20 04:03:13;;;;;;;1.85;0.88;;;;;;;;;;5043774;28;20049;-76
2023/11/20 04:05:45;;;;;;;6.85;0.70;;;;;;;;;;5045484;28;20049;-75
2023/11/20 04:08:15;;;;;;;5.32;0.70;;;;;;;;;;5044922;28;20052;-75
2023/11/20 04:10:46;;;;;;;4.97;0.60;;;;;;;;;;5045082;28;20049;-75
2023/11/20 04:13:16;;;;;;;4.20;0.63;;;;;;;;;;5044856;28;20053;-77
2023/11/20 04:15:47;;;;;;;3.85;0.88;;;;;;;;;;5043421;28;20508;-76
2023/11/20 04:18:18;;;;;;;2.35;0.52;;;;;;;;;;5045532;28;20049;-76
2023/11/20 04:20:49;;;;;;;6.35;0.73;;;;;;;;;;5044958;28;20057;-74
2023/11/20 04:23:20;;;;;;;3.78;0.70;;;;;;;;;;5044851;28;20049;-76
2023/11/20 04:26:03;;;;;;;4.45;0.98;;;;;;;;;;5045175;28;20060;-77
2023/11/20 04:28:35;;;;;;;2.20;0.60;;;;;;;;;;5045558;28;20056;-76
2023/11/20 04:31:06;;;;;;;3.60;0.90;;;;;;;;;;5044806;28;20049;-74
2023/11/20 04:33:37;;;;;;;2.88;0.77;;;;;;;;;;5043268;28;20061;-76
2023/11/20 04:36:08;;;;;;;0.57;0.50;;;;;;;;;;5042470;28;20063;-74
2023/11/20 04:38:40;;;;;;;1.25;0.60;;;;;;;;;;5042217;28;20060;-76
2023/11/20 04:41:10;;;;;;;9.73;0.63;;;;;;;;;;5044509;28;20439;-76
2023/11/20 04:43:40;;;;;;;3.13;0.60;;;;;;;;;;5044180;28;20049;-77
2023/11/20 04:46:12;;;;;;;1.30;0.60;;;;;;;;;;5044970;28;20064;-77
2023/11/20 04:48:43;;;;;;;1.83;0.70;;;;;;;;;;5044018;28;20056;-76
2023/11/20 04:51:22;;;;;;;3.45;0.60;;;;;;;;;;5044535;28;20049;-76
2023/11/20 04:53:55;;;;;;;3.80;0.75;;;;;;;;;;5044901;28;20049;-76
2023/11/20 04:56:26;;;;;;;3.35;0.70;;;;;;;;;;5045169;28;20060;-76
2023/11/20 04:58:56;;;;;;;2.60;0.77;;;;;;;;;;5044264;28;20535;-77
2023/11/20 05:01:26;;;;;;;6.82;0.90;;;;;;;;;;5042391;28;20357;-76
2023/11/20 05:03:57;;;;;;;4.78;0.90;;;;;;;;;;5044073;28;21141;-75
2023/11/20 05:06:27;;;;;;;5.28;0.60;;;;;;;;;;5044667;28;20501;-74
2023/11/20 05:08:57;;;;;;;1.65;0.70;;;;;;;;;;5044734;28;20049;-75
2023/11/20 05:11:29;;;;;;;3.10;0.80;;;;;;;;;;5042151;28;20049;-77
2023/11/20 05:14:00;;;;;;;2.83;0.60;;;;;;;;;;5043462;28;20053;-75
2023/11/20 05:16:29;;;;;;;6.55;0.70;;;;;;;;;;5044088;28;20052;-77
2023/11/20 05:19:00;;;;;;;5.63;1.17;;;;;;;;;;5043740;28;20412;-75
2023/11/20 05:21:30;;;;;;;2.95;0.90;;;;;;;;;;5043675;28;20442;-75
2023/11/20 05:24:01;;;;;;;12.80;2.17;;;;;;;;;;5044225;28;20056;-76
2023/11/20 05:26:32;;;;;;;3.15;0.80;;;;;;;;;;5043751;28;20048;-75
2023/11/20 05:29:05;;;;;;;2.10;0.60;;;;;;;;;;5043599;28;20060;-75
2023/11/20 05:31:35;;;;;;;2.47;0.82;;;;;;;;;;5043500;28;20056;-76
2023/11/20 05:34:06;;;;;;;3.75;1.00;;;;;;;;;;5043345;28;20048;-77
2023/11/20 05:36:37;;;;;;;3.20;0.90;;;;;;;;;;5043189;28;20412;-76
2023/11/20 05:39:08;;;;;;;3.83;0.80;;;;;;;;;;5041922;28;20045;-73
2023/11/20 05:41:39;;;;;;;1.88;1.00;;;;;;;;;;5043393;28;20504;-73
2023/11/20 05:44:09;;;;;;;2.25;0.70;;;;;;;;;;5043137;28;20059;-74
2023/11/20 05:46:40;;;;;;;4.63;1.10;;;;;;;;;;5044159;28;20423;-74
2023/11/20 05:49:10;;;;;;;3.38;0.55;;;;;;;;;;5042465;28;20084;-74
2023/11/20 05:51:42;;;;;;;1.38;0.65;;;;;;;;;;5043022;28;20041;-76
2023/11/20 05:54:20;;;;;;;2.50;1.00;;;;;;;;;;5043429;28;20492;-75
2023/11/20 05:56:51;;;;;;;5.05;1.00;;;;;;;;;;5041472;28;20923;-75
2023/11/20 05:59:22;;;;;;;3.65;0.77;;;;;;;;;;5041617;28;20049;-75
2023/11/20 06:01:52;;;;;;;7.15;1.77;;;;;;;;;;5043094;28;20056;-75
2023/11/20 06:04:22;;;;;;;3.30;0.75;;;;;;;;;;5043258;28;20503;-74
2023/11/20 06:06:54;;;;;;;4.05;0.73;;;;;;;;;;5043141;28;20045;-74
2023/11/20 06:09:26;;;;;;;3.17;0.80;;;;;;;;;;5042585;28;20053;-75
2023/11/20 06:11:56;;;;;;;1.10;0.70;;;;;;;;;;5041530;28;20052;-75
2023/11/20 06:14:27;;;;;;;2.53;0.80;;;;;;;;;;5042669;28;20357;-75
2023/11/20 06:16:57;;;;;;;2.55;0.80;;;;;;;;;;5041789;28;20646;-75
2023/11/20 06:19:27;;;;;;;5.80;1.02;;;;;;;;;;5042826;28;20055;-75
2023/11/20 06:21:58;;;;;;;4.47;0.80;;;;;;;;;;5042777;28;20049;-75
2023/11/20 06:24:32;;;;;;;3.35;0.70;;;;;;;;;;5042827;28;20496;-75
2023/11/20 06:27:04;;;;;;;7.30;1.40;;;;;;;;;;5042706;28;20412;-75
2023/11/20 06:29:41;;;;;;;7.55;0.88;;;;;;;;;;5042664;28;20062;-74
2023/11/20 06:32:12;;;;;;;4.78;0.80;;;;;;;;;;5040444;28;20056;-74
2023/11/20 06:37:47;;;;;;;1.73;0.85;;;;;;;;;;5042502;28;20392;-74
2023/11/20 06:40:28;;;;;;;5.28;0.90;;;;;;;;;;5040604;28;20423;-75
2023/11/20 06:43:04;;;;;;;;;;;;;;;;;;5041288;28;21171;-74
2023/11/20 06:45:36;;;;;;;1.02;0.47;;;;;;;;;;5039865;28;19925;-74
2023/11/20 06:48:07;;;;;;;2.08;0.80;;;;;;;;;;5042164;28;20064;-73
2023/11/20 06:50:37;;;;;;;5.63;0.73;;;;;;;;;;5042656;28;20044;-75
2023/11/20 06:53:08;;;;;;;0.70;0.60;;;;;;;;;;5041137;28;20516;-75
2023/11/20 06:55:42;;;;;;;5.10;0.90;;;;;;;;;;5040749;28;20496;-76
2023/11/20 06:58:12;;;;;;;0.77;0.52;;;;;;;;;;5042360;28;20051;-75
2023/11/20 07:00:43;;;;;;;5.25;0.63;;;;;;;;;;5042956;28;20080;-75
2023/11/20 07:03:13;;;;;;;2.47;0.70;;;;;;;;;;5042071;28;20047;-76
2023/11/20 07:05:44;;;;;;;4.95;0.82;;;;;;;;;;5041537;28;20045;-75
2023/11/20 07:08:16;;;;;;;6.07;0.73;;;;;;;;;;5041733;28;20522;-76
2023/11/20 07:10:48;;;;;;;1.60;0.70;;;;;;;;;;5041641;28;20060;-74
2023/11/20 07:13:19;;;;;;;2.35;0.90;;;;;;;;;;5042295;28;20503;-75
2023/11/20 07:15:53;;;;;;;4.22;0.52;;;;;;;;;;5042140;28;20044;-74
2023/11/20 07:18:24;;;;;;;8.82;0.80;;;;;;;;;;5041403;28;20041;-74
2023/11/20 07:20:55;;;;;;;2.67;0.90;;;;;;;;;;5024788;28;20045;-74
2023/11/20 07:23:25;;;;;;;2.85;0.90;;;;;;;;;;5041878;28;20068;-73
2023/11/20 07:25:55;;;;;;;4.05;0.90;;;;;;;;;;5041864;28;20428;-75
2023/11/20 07:28:26;;;;;;;7.00;1.10;;;;;;;;;;5041993;28;20052;-75
2023/11/20 07:30:57;;;;;;;4.15;0.60;;;;;;;;;;5041499;28;20041;-75
2023/11/20 07:33:27;;;;;;;6.78;0.80;;;;;;;;;;5042003;28;20067;-75
2023/11/20 07:35:57;;;;;;;1.58;0.70;;;;;;;;;;5044971;28;20060;-74
2023/11/20 07:38:27;;;;;;;4.10;1.10;;;;;;;;;;5045872;28;20052;-75
2023/11/20 07:41:02;;;;;;;2.40;0.52;;;;;;;;;;5046368;28;20057;-74
2023/11/20 07:43:33;;;;;;;6.53;0.95;;;;;;;;;;5045757;28;20041;-74
2023/11/20 07:46:04;;;;;;;4.20;0.80;;;;;;;;;;5045243;28;20040;-75
2023/11/20 07:48:35;;;;;;;2.67;0.60;;;;;;;;;;5045282;28;20056;-74
2023/11/20 07:51:06;;;;;;;2.72;0.77;;;;;;;;;;5045288;28;20041;-74
2023/11/20 07:53:36;;;;;;;1.73;0.75;;;;;;;;;;5045868;28;20051;-74
2023/11/20 07:56:07;;;;;;;3.83;0.77;;;;;;;;;;5043692;28;20045;-74
2023/11/20 07:58:37;;;;;;;7.45;0.82;;;;;;;;;;5045687;28;20049;-75
2023/11/20 08:01:08;;;;;;;1.77;0.85;;;;;;;;;;5045176;28;20420;-74
2023/11/20 08:03:45;;;;;;;3.40;0.68;;;;;;;;;;5025173;28;20049;-74
2023/11/20 08:06:16;;;;;;;2.17;0.82;;;;;;;;;;5045663;28;20396;-75
2023/11/20 08:08:49;;;;;;;2.40;0.80;;;;;;;;;;5045392;28;20055;-75
2023/11/20 08:11:19;;;;;;;9.30;0.77;;;;;;;;;;5045468;28;20037;-74
2023/11/20 08:13:50;;;;;;;5.28;0.85;;;;;;;;;;5045248;28;20045;-75
2023/11/20 08:16:20;;;;;;;1.20;0.65;;;;;;;;;;5045133;28;20036;-74
2023/11/20 08:18:52;;;;;;;6.00;0.90;;;;;;;;;;5044904;28;20049;-75
2023/11/20 08:21:22;;;;;;;3.00;0.85;;;;;;;;;;5043515;28;20037;-75
2023/11/20 08:23:52;;;;;;;1.08;0.73;;;;;;;;;;5044669;28;20049;-75
2023/11/20 08:26:23;;;;;;;5.85;0.80;;;;;;;;;;5043338;28;20041;-74
2023/11/20 08:28:53;;;;;;;3.05;0.90;;;;;;;;;;5044676;28;20056;-75
2023/11/20 08:31:25;;;;;;;9.15;0.82;;;;;;;;;;5044688;28;20059;-74
2023/11/20 08:33:55;;;;;;;4.55;1.13;;;;;;;;;;5044419;28;20052;-74
2023/11/20 08:36:26;;;;;;;4.30;0.80;;;;;;;;;;5044698;28;20496;-73
2023/11/20 08:38:56;;;;;;;2.05;0.93;;;;;;;;;;5044022;28;20048;-73
2023/11/20 08:41:27;;;;;;;2.00;1.00;;;;;;;;;;5043530;28;20075;-74
2023/11/20 08:43:59;;;;;;;0.95;0.85;;;;;;;;;;5043260;28;20052;-74
2023/11/20 08:46:29;;;;;;;4.28;0.75;;;;;;;;;;5043476;28;20518;-74
2023/11/20 08:49:01;;;;;;;8.65;1.40;;;;;;;;;;5044632;28;20407;-74
2023/11/20 08:51:33;;;;;;;1.38;0.90;;;;;;;;;;5043962;28;20049;-75
2023/11/20 08:54:05;;;;;;;1.85;0.63;;;;;;;;;;5044907;28;20052;-74
2023/11/20 08:56:36;;;;;;;2.08;0.82;;;;;;;;;;5043558;28;20538;-75
2023/11/20 08:59:07;;;;;;;3.05;1.02;;;;;;;;;;5043820;28;20045;-75
2023/11/20 09:01:37;;;;;;;1.15;0.80;;;;;;;;;;5044271;28;20049;-74
2023/11/20 09:04:10;;;;;;;5.72;1.60;;;;;;;;;;5044553;28;20396;-74
2023/11/20 09:06:40;;;;;;;7.28;1.42;;;;;;;;;;5043703;28;20520;-74
2023/11/20 09:09:11;;;;;;;4.78;1.02;;;;;;;;;;5043659;28;20057;-75
2023/11/20 09:11:40;;;;;;;3.38;0.98;;;;;;;;;;5042600;28;20545;-74
2023/11/20 09:14:12;;;;;;;8.00;1.35;;;;;;;;;;5043799;28;20055;-74
2023/11/20 09:16:46;;;;;;;3.72;1.33;;;;;;;;;;5043228;28;20439;-74
2023/11/20 09:19:19;;;;;;;4.03;1.30;;;;;;;;;;5043502;28;20535;-75
2023/11/20 09:21:49;;;;;;;5.43;1.20;;;;;;;;;;5044392;28;20051;-74
2023/11/20 09:24:19;;;;;;;4.25;1.00;;;;;;;;;;5043852;28;20041;-76
2023/11/20 09:26:50;;;;;;;4.60;0.88;;;;;;;;;;5043675;28;20553;-74
2023/11/20 09:29:21;;;;;;;3.22;0.75;;;;;;;;;;5043625;28;20067;-75
2023/11/20 09:32:02;;;;;;;3.15;1.10;;;;;;;;;;5042784;28;20052;-75
2023/11/20 09:34:32;;;;;;;6.32;1.67;;;;;;;;;;5043535;28;20658;-74
2023/11/20 09:37:03;;;;;;;4.72;1.60;;;;;;;;;;5043812;28;20049;-73
2023/11/20 09:39:34;;;;;;;5.20;1.20;;;;;;;;;;5044032;28;20049;-75
2023/11/20 09:42:05;;;;;;;7.75;3.03;;;;;;;;;;5043325;28;20056;-77
2023/11/20 09:44:40;;;;;;;4.13;1.40;;;;;;;;;;5043290;28;20974;-75
2023/11/20 09:47:12;;;;;;;1.33;0.93;;;;;;;;;;5043434;28;20528;-76
2023/11/20 09:49:45;;;;;;;4.40;2.58;;;;;;;;;;5043360;28;20060;-75
2023/11/20 09:52:17;;;;;;;6.75;1.20;;;;;;;;;;5043201;28;20075;-75
2023/11/20 09:54:48;;;;;;;4.75;1.00;;;;;;;;;;5041640;28;20056;-74
2023/11/20 09:57:23;;;;;;;5.53;0.90;;;;;;;;;;5042988;28;20053;-75
2023/11/20 09:59:54;;;;;;;7.60;1.30;;;;;;;;;;5042537;28;20676;-82
2023/11/20 10:02:28;;;;;;;2.40;1.10;;;;;;;;;;5042973;28;20060;-74
2023/11/20 10:05:00;;;;;;;3.95;0.90;;;;;;;;;;5042759;28;20056;-83
2023/11/20 10:07:37;;;;;;;3.88;0.90;;;;;;;;;;5043658;28;20052;-75
2023/11/20 10:10:10;;;;;;;3.03;0.95;;;;;;;;;;5042690;28;20504;-76
2023/11/20 10:12:43;;;;;;;5.97;1.90;;;;;;;;;;5043787;28;20045;-74
2023/11/20 10:15:14;;;;;;;4.65;1.05;;;;;;;;;;5042594;28;20053;-74
2023/11/20 10:17:45;;;;;;;4.47;0.95;;;;;;;;;;5042625;28;20067;-77
2023/11/20 10:20:16;;;;;;;6.03;1.35;;;;;;;;;;5043109;28;20045;-76
2023/11/20 10:22:47;;;;;;;5.45;1.05;;;;;;;;;;5042866;28;20040;-76
2023/11/20 10:25:23;;;;;;;5.47;1.25;;;;;;;;;;5042795;28;20565;-78
2023/11/20 10:27:54;;;;;;;8.40;1.65;;;;;;;;;;5042940;28;20040;-75
2023/11/20 10:30:25;;;;;;;1.27;0.88;;;;;;;;;;5042504;28;20411;-75
2023/11/20 10:32:55;;;;;;;2.88;0.88;;;;;;;;;;5042069;28;20081;-76
2023/11/20 10:35:28;;;;;;;6.57;2.28;;;;;;;;;;5042756;28;20056;-75
2023/11/20 10:38:05;;;;;;;2.40;0.80;;;;;;;;;;5042552;28;20053;-76
2023/11/20 10:40:35;;;;;;;3.42;0.80;;;;;;;;;;5042390;28;20508;-74
2023/11/20 10:43:06;;;;;;;2.35;0.88;;;;;;;;;;5042758;28;20055;-75
2023/11/20 10:45:38;;;;;;;3.05;1.15;;;;;;;;;;5024950;28;20594;-74
2023/11/20 10:48:12;;;;;;;7.10;1.25;;;;;;;;;;5042249;28;20049;-75
2023/11/20 10:50:47;;;;;;;6.65;1.13;;;;;;;;;;5040368;28;20059;-74
2023/11/20 10:53:21;;;;;;;15.70;1.83;;;;;;;;;;5042835;28;20055;-76
2023/11/20 10:55:55;;;;;;;6.32;1.58;;;;;;;;;;5042364;28;20714;-75
2023/11/20 10:58:31;;;;;;;2.22;0.95;;;;;;;;;;5041050;28;20040;-75
2023/11/20 11:01:03;;;;;;;4.63;0.80;;;;;;;;;;5042764;28;20056;-77
2023/11/20 11:03:36;;;;;;;5.55;0.90;;;;;;;;;;5041730;28;20613;-73
2023/11/20 11:06:10;;;;;;;8.02;0.93;;;;;;;;;;5042503;28;20055;-75
2023/11/20 11:08:45;;;;;;;7.38;0.95;;;;;;;;;;5041589;28;20051;-77
2023/11/20 11:11:20;;;;;;;2.72;1.08;;;;;;;;;;5041593;28;20064;-77
2023/11/20 11:13:51;;;;;;;5.97;0.98;;;;;;;;;;5040847;28;20500;-78
2023/11/20 11:16:33;;;;;;;3.67;0.80;;;;;;;;;;5040988;28;20057;-74
2023/11/20 11:19:08;;;;;;;8.73;3.25;;;;;;;;;;5042140;28;20068;-74
2023/11/20 11:21:52;;;;;;;3.00;0.60;;;;;;;;;;5041974;28;20053;-74
2023/11/20 11:24:31;;;;;;;4.20;0.70;;;;;;;;;;5041375;28;20045;-76
2023/11/20 11:27:07;;;;;;;1.98;0.85;;;;;;;;;;5041639;28;20052;-75
2023/11/20 11:29:45;;;;;;;3.20;0.70;;;;;;;;;;5042441;28;20044;-75
2023/11/20 11:32:39;;;;;;;3.80;1.00;;;;;;;;;;5041632;28;20041;-77
2023/11/20 11:35:27;;;;;;;2.13;0.77;;;;;;;;;;5024876;28;20060;-76
2023/11/20 11:38:15;;;;;;;3.20;2.53;;;;;;;;;;5040289;28;20049;-74
2023/11/20 11:41:13;;;;;;;3.10;0.80;;;;;;;;;;5040458;28;20053;-75
2023/11/20 11:43:59;;;;;;;2.00;0.77;;;;;;;;;;5040642;28;20060;-73
2023/11/20 11:46:33;;;;;;;4.07;0.70;;;;;;;;;;5040950;28;20049;-75
2023/11/20 11:49:23;;;;;;;3.17;0.88;;;;;;;;;;5041890;28;20075;-74
2023/11/20 11:52:03;;;;;;;2.10;0.90;;;;;;;;;;5041204;28;20049;-74
2023/11/20 11:54:34;;;;;;;6.00;3.47;;;;;;;;;;5041780;28;20056;-76
2023/11/20 11:57:21;;;;;;;3.80;0.90;;;;;;;;;;5041451;28;20052;-77
2023/11/20 11:59:52;;;;;;;;;;;;;;;;;;5041536;28;20683;-75
2023/11/20 12:02:51;;;;;;;2.47;0.90;;;;;;;;;;5041920;28;19935;-75
2023/11/20 12:05:24;;;;;;;3.05;1.17;;;;;;;;;;5042214;28;20057;-76
2023/11/20 12:07:57;;;;;;;3.08;0.90;;;;;;;;;;5041953;28;20052;-79
2023/11/20 12:10:45;;;;;;;6.35;1.40;;;;;;;;;;5041966;28;20088;-76
2023/11/20 12:13:18;;;;;;;4.97;1.15;;;;;;;;;;5041614;28;20049;-76
2023/11/20 12:16:03;;;;;;;3.40;1.10;;;;;;;;;;5041320;28;20053;-75
2023/11/20 12:18:36;;;;;;;2.00;0.73;;;;;;;;;;5040674;28;20041;-73
2023/11/20 12:21:08;;;;;;;1.95;0.95;;;;;;;;;;5043071;28;20045;-76
2023/11/20 12:23:45;;;;;;;5.05;1.45;;;;;;;;;;5045043;28;20056;-75
2023/11/20 12:26:25;;;;;;;2.10;0.65;;;;;;;;;;5043659;28;20055;-74
2023/11/20 12:28:56;;;;;;;4.15;0.70;;;;;;;;;;5044522;28;20056;-76
2023/11/20 12:31:27;;;;;;;3.85;0.65;;;;;;;;;;5044851;28;20510;-75
2023/11/20 12:33:58;;;;;;;1.42;0.80;;;;;;;;;;5044849;28;20044;-74
2023/11/20 12:36:29;;;;;;;4.18;0.90;;;;;;;;;;5044101;28;20408;-75
2023/11/20 12:39:00;;;;;;;2.58;0.60;;;;;;;;;;5045153;28;20052;-77
2023/11/20 12:41:30;;;;;;;1.45;0.60;;;;;;;;;;5044488;28;20037;-74
2023/11/20 12:44:01;;;;;;;4.28;0.60;;;;;;;;;;5045643;28;20044;-78
2023/11/20 12:46:32;;;;;;;5.43;2.00;;;;;;;;;;5044769;28;20049;-76
2023/11/20 12:49:03;;;;;;;2.47;0.70;;;;;;;;;;5044223;28;20049;-76
2023/11/20 12:51:34;;;;;;;0.93;0.50;;;;;;;;;;5042433;28;20053;-79
2023/11/20 12:54:06;;;;;;;4.15;0.60;;;;;;;;;;5044547;28;20491;-75
2023/11/20 12:56:36;;;;;;;2.50;0.45;;;;;;;;;;5044846;28;20040;-76
2023/11/20 12:59:06;;;;;;;2.88;0.50;;;;;;;;;;5043432;28;20045;-76
2023/11/20 13:01:36;;;;;;;1.00;0.55;;;;;;;;;;5043985;28;20052;-77
2023/11/20 13:04:09;;;;;;;1.63;0.70;;;;;;;;;;5044274;28;20041;-76
2023/11/20 13:06:40;;;;;;;5.05;0.65;;;;;;;;;;5044137;28;20456;-76
2023/11/20 13:09:12;;;;;;;1.80;0.40;;;;;;;;;;5043772;28;20048;-77
2023/11/20 13:11:42;;;;;;;0.50;0.40;;;;;;;;;;5043820;28;20057;-76
2023/11/20 13:14:14;;;;;;;1.58;0.45;;;;;;;;;;5044183;28;20049;-77
2023/11/20 13:16:48;;;;;;;0.68;0.50;;;;;;;;;;5043686;28;20049;-77
2023/11/20 13:19:38;;;;;;;2.10;0.40;;;;;;;;;;5043755;28;20053;-74
2023/11/20 13:22:09;;;;;;;2.38;0.50;;;;;;;;;;5044266;28;20045;-74
2023/11/20 13:24:51;;;;;;;2.33;0.50;;;;;;;;;;5044027;28;20044;-74
2023/11/20 13:27:25;;;;;;;1.30;0.50;;;;;;;;;;5043854;28;20044;-75
2023/11/20 13:30:19;;;;;;;0.70;0.40;;;;;;;;;;5044344;28;20741;-76
2023/11/20 13:32:51;;;;;;;4.80;0.63;;;;;;;;;;5043146;28;20064;-75
2023/11/20 13:35:21;;;;;;;2.60;0.90;;;;;;;;;;5043404;28;20053;-77
2023/11/20 13:37:56;;;;;;;1.98;0.60;;;;;;;;;;5043536;28;20401;-74
2023/11/20 13:40:26;;;;;;;2.92;0.75;;;;;;;;;;5043352;28;21213;-72
2023/11/20 13:43:10;;;;;;;1.20;0.95;;;;;;;;;;5043581;28;20048;-75
2023/11/20 13:45:46;;;;;;;10.23;4.00;;;;;;;;;;5043708;28;20530;-75
2023/11/20 13:48:17;;;;;;;1.30;0.30;;;;;;;;;;5043182;28;20041;-74
2023/11/20 13:50:49;;;;;;;3.00;0.30;;;;;;;;;;5042988;28;20045;-76
2023/11/20 13:53:24;;;;;;;0.63;0.40;;;;;;;;;;5043453;28;21243;-75
2023/11/20 13:55:57;;;;;;;0.40;0.40;;;;;;;;;;5042675;28;20052;-74
2023/11/20 13:58:27;;;;;;;1.30;0.40;;;;;;;;;;5042959;28;20148;-76
2023/11/20 14:01:02;;;;;;;1.83;0.30;;;;;;;;;;5044357;28;20049;-75
2023/11/20 14:03:33;;;;;;;2.47;0.40;;;;;;;;;;5025917;28;20766;-76
2023/11/20 14:06:04;;;;;;;3.97;0.22;;;;;;;;;;5042724;28;20048;-77
2023/11/20 14:08:37;;;;;;;1.40;0.30;;;;;;;;;;5042675;28;20419;-74
2023/11/20 14:11:09;;;;;;;1.33;0.25;;;;;;;;;;5042732;28;20067;-75
2023/11/20 14:13:39;;;;;;;1.13;0.32;;;;;;;;;;5041169;28;20048;-76
2023/11/20 14:16:11;;;;;;;2.08;0.30;;;;;;;;;;5042820;28;20045;-75
2023/11/20 14:18:42;;;;;;;2.50;0.20;;;;;;;;;;5043105;28;20040;-76
2023/11/20 14:21:20;;;;;;;1.73;0.30;;;;;;;;;;5042584;28;20044;-74
2023/11/20 14:23:55;;;;;;;0.75;0.30;;;;;;;;;;5041783;28;20045;-75
2023/11/20 14:26:25;;;;;;;2.20;0.30;;;;;;;;;;5042251;28;20500;-74
2023/11/20 14:29:04;;;;;;;7.78;1.85;;;;;;;;;;5042727;28;20045;-74
2023/11/20 14:31:35;;;;;;;0.52;0.10;;;;;;;;;;5041625;28;20052;-73
2023/11/20 14:34:06;;;;;;;0.80;0.25;;;;;;;;;;5042450;28;20048;-76
2023/11/20 14:36:37;;;;;;;0.55;0.30;;;;;;;;;;5043456;28;20061;-75
2023/11/20 14:39:09;;;;;;;1.15;0.30;;;;;;;;;;5042909;28;20446;-77
2023/11/20 14:41:39;;;;;;;1.85;0.30;;;;;;;;;;5043726;28;20053;-74
2023/11/20 14:44:12;;;;;;;1.67;0.30;;;;;;;;;;5042064;28;20067;-74
2023/11/20 14:46:43;;;;;;;0.88;0.10;;;;;;;;;;5042356;28;20522;-77
2023/11/20 14:49:13;;;;;;;2.55;0.30;;;;;;;;;;5042584;28;20048;-77
2023/11/20 14:51:45;;;;;;;6.00;0.47;;;;;;;;;;5042579;28;20056;-74
2023/11/20 14:54:16;;;;;;;4.20;1.00;;;;;;;;;;5042314;28;20415;-76
2023/11/20 14:56:47;;;;;;;1.00;0.17;;;;;;;;;;5041874;28;20419;-75
2023/11/20 14:59:18;;;;;;;0.80;0.10;;;;;;;;;;5041646;28;20423;-74
2023/11/20 15:01:52;;;;;;;1.85;0.20;;;;;;;;;;5042726;28;20057;-75
2023/11/20 15:04:23;;;;;;;1.65;0.20;;;;;;;;;;5041029;28;20049;-75
2023/11/20 15:06:54;;;;;;;2.38;0.17;;;;;;;;;;5041225;28;20076;-75
2023/11/20 15:09:25;;;;;;;0.60;0.13;;;;;;;;;;5042074;28;20052;-74
2023/11/20 15:11:57;;;;;;;3.97;0.40;;;;;;;;;;5042069;28;20415;-75
2023/11/20 15:14:33;;;;;;;2.10;0.40;;;;;;;;;;5042066;28;20616;-75
2023/11/20 15:17:07;;;;;;;0.10;0.03;;;;;;;;;;5042668;28;20064;-76
2023/11/20 15:19:38;;;;;;;0.38;0.13;;;;;;;;;;5042798;28;20526;-75